createdAt,value
2019-03-08T00:00:22.716Z,0.00
2019-03-08T00:01:22.686Z,0.00
2019-03-08T00:02:22.672Z,0.00
2019-03-08T00:03:22.638Z,0.00
2019-03-08T00:04:22.613Z,0.00
2019-03-08T00:05:22.589Z,0.00
2019-03-08T00:06:22.567Z,0.00
2019-03-08T00:07:22.541Z,0.00
2019-03-08T00:08:22.519Z,0.00
2019-03-08T00:09:22.495Z,0.00
2019-03-08T00:10:22.471Z,0.00
2019-03-08T00:11:22.447Z,0.00
2019-03-08T00:12:22.432Z,0.00
2019-03-08T00:13:22.400Z,0.00
2019-03-08T00:14:22.379Z,0.00
2019-03-08T00:15:22.361Z,0.00
2019-03-08T00:16:22.342Z,0.00
2019-03-08T00:17:22.306Z,0.00
2019-03-08T00:18:22.293Z,0.00
2019-03-08T00:19:22.260Z,0.00
2019-03-08T00:20:22.236Z,0.00
2019-03-08T00:21:22.221Z,0.00
2019-03-08T00:22:22.193Z,0.00
2019-03-08T00:23:22.163Z,0.00
2019-03-08T00:24:22.143Z,0.00
2019-03-08T00:25:22.119Z,0.00
2019-03-08T00:26:22.092Z,0.00
2019-03-08T00:27:22.067Z,0.00
2019-03-08T00:28:22.049Z,0.00
2019-03-08T00:29:22.058Z,0.00
2019-03-08T00:30:22.002Z,0.00
2019-03-08T00:31:21.982Z,0.00
2019-03-08T00:32:21.953Z,0.00
2019-03-08T00:33:21.943Z,0.00
2019-03-08T00:34:21.909Z,0.00
2019-03-08T00:35:21.891Z,0.00
2019-03-08T00:36:21.861Z,0.00
2019-03-08T00:37:21.839Z,0.00
2019-03-08T00:38:21.813Z,0.00
2019-03-08T00:39:21.791Z,0.00
2019-03-08T00:40:21.766Z,0.00
2019-03-08T00:41:21.743Z,0.00
2019-03-08T00:42:21.724Z,0.00
2019-03-08T00:43:21.699Z,0.00
2019-03-08T00:44:21.673Z,0.00
2019-03-08T00:45:21.650Z,0.00
2019-03-08T00:46:21.625Z,0.00
2019-03-08T00:47:21.619Z,0.00
2019-03-08T00:48:21.581Z,0.00
2019-03-08T00:49:21.562Z,0.00
2019-03-08T00:50:21.533Z,0.00
2019-03-08T00:51:21.541Z,0.00
2019-03-08T00:52:21.482Z,0.00
2019-03-08T00:53:21.460Z,0.00
2019-03-08T00:54:21.438Z,0.00
2019-03-08T00:55:21.413Z,0.00
2019-03-08T00:56:21.386Z,0.00
2019-03-08T00:57:21.376Z,0.00
2019-03-08T00:58:21.350Z,0.00
2019-03-08T00:59:21.330Z,0.00
2019-03-08T01:00:21.298Z,0.00
2019-03-08T01:01:21.280Z,0.00
2019-03-08T01:02:21.247Z,0.00
2019-03-08T01:03:21.220Z,0.00
2019-03-08T01:04:21.209Z,0.00
2019-03-08T01:05:21.182Z,0.00
2019-03-08T01:06:21.164Z,0.00
2019-03-08T01:07:21.138Z,0.00
2019-03-08T01:08:21.109Z,0.00
2019-03-08T01:09:21.092Z,0.00
2019-03-08T01:10:21.096Z,0.00
2019-03-08T01:11:21.040Z,0.00
2019-03-08T01:12:21.015Z,0.00
2019-03-08T01:13:20.996Z,0.00
2019-03-08T01:14:20.979Z,0.00
2019-03-08T01:15:20.945Z,0.00
2019-03-08T01:16:20.923Z,0.00
2019-03-08T01:17:20.901Z,0.00
2019-03-08T01:18:20.876Z,0.00
2019-03-08T01:19:20.846Z,0.00
2019-03-08T01:20:20.827Z,0.00
2019-03-08T01:21:20.802Z,0.00
2019-03-08T01:22:20.778Z,0.00
2019-03-08T01:23:20.770Z,0.00
2019-03-08T01:24:20.739Z,0.00
2019-03-08T01:25:21.516Z,0.00
2019-03-08T01:26:20.687Z,0.00
2019-03-08T01:27:20.663Z,0.00
2019-03-08T01:28:20.635Z,0.00
2019-03-08T01:29:20.611Z,0.00
2019-03-08T01:30:20.589Z,0.00
2019-03-08T01:31:20.571Z,0.00
2019-03-08T01:32:20.542Z,0.00
2019-03-08T01:33:20.518Z,0.00
2019-03-08T01:34:20.494Z,0.00
2019-03-08T01:35:20.477Z,0.00
2019-03-08T01:36:20.448Z,0.00
2019-03-08T01:37:20.554Z,0.00
2019-03-08T01:38:20.405Z,0.00
2019-03-08T01:39:20.381Z,0.00
2019-03-08T01:40:20.366Z,0.00
2019-03-08T01:41:20.331Z,0.00
2019-03-08T01:42:20.311Z,0.00
2019-03-08T01:43:20.280Z,0.00
2019-03-08T01:44:20.261Z,0.00
2019-03-08T01:45:20.245Z,0.00
2019-03-08T01:46:20.214Z,0.00
2019-03-08T01:47:20.185Z,0.00
2019-03-08T01:48:20.162Z,0.00
2019-03-08T01:49:20.138Z,0.00
2019-03-08T01:50:20.115Z,0.00
2019-03-08T01:51:20.094Z,0.00
2019-03-08T01:52:20.069Z,0.00
2019-03-08T01:53:20.054Z,0.00
2019-03-08T01:54:39.240Z,0.00
2019-03-08T01:55:19.998Z,0.00
2019-03-08T01:56:19.980Z,0.00
2019-03-08T01:57:19.950Z,0.00
2019-03-08T01:58:19.940Z,0.00
2019-03-08T01:59:19.901Z,0.00
2019-03-08T02:00:19.888Z,0.00
2019-03-08T02:01:19.857Z,0.00
2019-03-08T02:02:19.837Z,0.00
2019-03-08T02:03:19.810Z,0.00
2019-03-08T02:04:19.788Z,0.00
2019-03-08T02:05:19.765Z,0.00
2019-03-08T02:06:19.740Z,0.00
2019-03-08T02:07:19.711Z,0.00
2019-03-08T02:08:19.691Z,0.00
2019-03-08T02:09:19.672Z,0.00
2019-03-08T02:10:19.645Z,0.00
2019-03-08T02:11:19.618Z,0.00
2019-03-08T02:12:19.599Z,0.00
2019-03-08T02:13:19.572Z,0.00
2019-03-08T02:14:19.549Z,0.00
2019-03-08T02:15:19.523Z,0.00
2019-03-08T02:16:19.502Z,0.00
2019-03-08T02:17:19.475Z,0.00
2019-03-08T02:18:19.453Z,0.00
2019-03-08T02:19:19.430Z,0.00
2019-03-08T02:20:19.405Z,0.00
2019-03-08T02:21:19.382Z,0.00
2019-03-08T02:22:19.359Z,0.00
2019-03-08T02:23:19.333Z,0.00
2019-03-08T02:24:19.311Z,0.00
2019-03-08T02:25:19.285Z,0.00
2019-03-08T02:26:19.264Z,0.00
2019-03-08T02:27:19.242Z,0.00
2019-03-08T02:28:19.215Z,0.00
2019-03-08T02:29:19.195Z,0.00
2019-03-08T02:30:19.183Z,0.00
2019-03-08T02:31:19.153Z,0.00
2019-03-08T02:32:19.124Z,0.00
2019-03-08T02:33:19.099Z,0.00
2019-03-08T02:34:19.075Z,0.00
2019-03-08T02:35:19.085Z,0.00
2019-03-08T02:36:19.032Z,0.00
2019-03-08T02:37:19.008Z,0.00
2019-03-08T02:38:18.982Z,0.00
2019-03-08T02:39:18.957Z,0.00
2019-03-08T02:40:18.939Z,0.00
2019-03-08T02:41:18.910Z,0.00
2019-03-08T02:42:18.888Z,0.00
2019-03-08T02:43:18.868Z,0.00
2019-03-08T02:44:18.838Z,0.00
2019-03-08T02:45:18.814Z,0.00
2019-03-08T02:46:18.790Z,0.00
2019-03-08T02:47:18.767Z,0.00
2019-03-08T02:48:18.747Z,0.00
2019-03-08T02:49:18.722Z,0.00
2019-03-08T02:50:18.700Z,0.00
2019-03-08T02:51:18.671Z,0.00
2019-03-08T02:52:18.650Z,0.00
2019-03-08T02:53:18.627Z,0.00
2019-03-08T02:54:18.602Z,0.00
2019-03-08T02:55:18.577Z,0.00
2019-03-08T02:56:18.557Z,0.00
2019-03-08T02:57:18.530Z,0.00
2019-03-08T02:58:18.509Z,0.00
2019-03-08T02:59:18.482Z,0.00
2019-03-08T03:00:18.460Z,0.00
2019-03-08T03:01:18.435Z,0.00
2019-03-08T03:02:18.411Z,0.00
2019-03-08T03:03:18.400Z,0.00
2019-03-08T03:04:18.363Z,0.00
2019-03-08T03:05:18.347Z,0.00
2019-03-08T03:06:18.321Z,0.00
2019-03-08T03:07:18.297Z,0.00
2019-03-08T03:08:18.294Z,0.00
2019-03-08T03:09:18.245Z,0.00
2019-03-08T03:10:18.227Z,0.00
2019-03-08T03:11:18.196Z,0.00
2019-03-08T03:12:18.174Z,0.00
2019-03-08T03:13:18.150Z,0.00
2019-03-08T03:14:18.135Z,0.00
2019-03-08T03:15:18.105Z,0.00
2019-03-08T03:16:18.092Z,0.00
2019-03-08T03:17:18.054Z,0.00
2019-03-08T03:18:18.034Z,0.00
2019-03-08T03:19:18.007Z,0.00
2019-03-08T03:20:17.986Z,0.00
2019-03-08T03:21:17.964Z,0.00
2019-03-08T03:22:17.938Z,0.00
2019-03-08T03:23:17.915Z,0.00
2019-03-08T03:24:17.889Z,0.00
2019-03-08T03:25:17.867Z,0.00
2019-03-08T03:26:17.841Z,0.00
2019-03-08T03:27:17.817Z,0.00
2019-03-08T03:28:17.794Z,0.00
2019-03-08T03:29:17.772Z,0.00
2019-03-08T03:30:17.750Z,0.00
2019-03-08T03:31:17.725Z,0.00
2019-03-08T03:32:17.700Z,0.00
2019-03-08T03:33:17.674Z,0.00
2019-03-08T03:34:17.652Z,0.00
2019-03-08T03:35:17.625Z,0.00
2019-03-08T03:36:17.603Z,0.00
2019-03-08T03:37:17.581Z,0.00
2019-03-08T03:38:17.560Z,0.00
2019-03-08T03:39:17.536Z,0.00
2019-03-08T03:40:17.511Z,0.00
2019-03-08T03:41:17.490Z,0.00
2019-03-08T03:42:17.466Z,0.00
2019-03-08T03:43:17.438Z,0.00
2019-03-08T03:44:17.416Z,0.00
2019-03-08T03:45:17.389Z,0.00
2019-03-08T03:46:17.369Z,0.00
2019-03-08T03:47:17.347Z,0.00
2019-03-08T03:48:17.318Z,0.00
2019-03-08T03:49:17.294Z,0.00
2019-03-08T03:50:18.592Z,0.00
2019-03-08T03:51:17.248Z,0.00
2019-03-08T03:52:17.228Z,0.00
2019-03-08T03:53:17.201Z,0.00
2019-03-08T03:54:17.177Z,0.00
2019-03-08T03:55:17.154Z,0.00
2019-03-08T03:56:17.129Z,0.00
2019-03-08T03:57:17.107Z,0.00
2019-03-08T03:58:17.083Z,0.00
2019-03-08T03:59:17.059Z,0.00
2019-03-08T04:00:17.037Z,0.00
2019-03-08T04:01:17.019Z,0.00
2019-03-08T04:02:16.987Z,0.00
2019-03-08T04:03:16.964Z,0.00
2019-03-08T04:04:16.944Z,0.00
2019-03-08T04:05:16.915Z,0.00
2019-03-08T04:06:16.897Z,0.00
2019-03-08T04:07:16.873Z,0.00
2019-03-08T04:08:16.842Z,0.00
2019-03-08T04:09:16.821Z,0.00
2019-03-08T04:10:16.800Z,0.00
2019-03-08T04:11:16.774Z,0.00
2019-03-08T04:12:16.750Z,0.00
2019-03-08T04:13:16.726Z,0.00
2019-03-08T04:14:16.704Z,0.00
2019-03-08T04:15:16.679Z,0.00
2019-03-08T04:16:16.669Z,0.00
2019-03-08T04:17:16.631Z,0.00
2019-03-08T04:18:16.609Z,0.00
2019-03-08T04:19:16.585Z,0.00
2019-03-08T04:20:16.566Z,0.00
2019-03-08T04:21:16.538Z,0.00
2019-03-08T04:22:16.514Z,0.00
2019-03-08T04:23:16.490Z,0.00
2019-03-08T04:24:16.475Z,0.00
2019-03-08T04:25:16.443Z,0.00
2019-03-08T04:26:16.419Z,0.00
2019-03-08T04:27:16.395Z,0.00
2019-03-08T04:28:16.369Z,0.00
2019-03-08T04:29:16.353Z,0.00
2019-03-08T04:30:16.331Z,0.00
2019-03-08T04:31:16.299Z,0.00
2019-03-08T04:32:16.279Z,0.00
2019-03-08T04:33:16.253Z,0.00
2019-03-08T04:34:16.228Z,0.00
2019-03-08T04:35:16.206Z,0.00
2019-03-08T04:36:16.188Z,0.00
2019-03-08T04:37:16.160Z,0.00
2019-03-08T04:38:16.141Z,0.00
2019-03-08T04:39:16.112Z,0.00
2019-03-08T04:40:16.094Z,0.00
2019-03-08T04:41:16.066Z,0.00
2019-03-08T04:42:16.040Z,0.00
2019-03-08T04:43:16.016Z,0.00
2019-03-08T04:44:15.993Z,0.00
2019-03-08T04:45:15.968Z,0.00
2019-03-08T04:46:15.945Z,0.00
2019-03-08T04:47:15.926Z,0.00
2019-03-08T04:48:15.896Z,0.00
2019-03-08T04:49:15.874Z,0.00
2019-03-08T04:50:15.851Z,0.00
2019-03-08T04:51:15.833Z,0.00
2019-03-08T04:52:15.806Z,0.00
2019-03-08T04:53:15.777Z,0.00
2019-03-08T04:54:15.756Z,0.00
2019-03-08T04:55:16.872Z,0.00
2019-03-08T04:56:15.709Z,0.00
2019-03-08T04:57:15.684Z,0.00
2019-03-08T04:58:15.680Z,0.00
2019-03-08T04:59:15.642Z,0.00
2019-03-08T05:00:15.612Z,0.00
2019-03-08T05:01:15.590Z,0.00
2019-03-08T05:02:15.567Z,0.00
2019-03-08T05:03:15.551Z,0.00
2019-03-08T05:04:15.519Z,0.00
2019-03-08T05:05:15.495Z,0.00
2019-03-08T05:06:15.472Z,0.00
2019-03-08T05:07:15.451Z,0.00
2019-03-08T05:08:15.424Z,0.00
2019-03-08T05:09:15.400Z,0.00
2019-03-08T05:10:15.385Z,0.00
2019-03-08T05:11:15.352Z,0.00
2019-03-08T05:12:15.333Z,0.00
2019-03-08T05:13:15.308Z,0.00
2019-03-08T05:14:15.280Z,0.00
2019-03-08T05:15:15.265Z,0.00
2019-03-08T05:16:15.239Z,0.00
2019-03-08T05:17:15.211Z,0.00
2019-03-08T05:18:15.186Z,0.00
2019-03-08T05:19:15.163Z,0.00
2019-03-08T05:20:15.138Z,0.00
2019-03-08T05:21:15.117Z,0.00
2019-03-08T05:22:15.094Z,0.00
2019-03-08T05:23:15.085Z,0.00
2019-03-08T05:24:15.043Z,0.00
2019-03-08T05:25:15.023Z,0.00
2019-03-08T05:26:15.003Z,0.00
2019-03-08T05:27:14.972Z,0.00
2019-03-08T05:28:14.968Z,0.00
2019-03-08T05:29:14.926Z,0.00
2019-03-08T05:30:14.907Z,0.00
2019-03-08T05:31:14.884Z,0.00
2019-03-08T05:32:14.854Z,0.00
2019-03-08T05:33:14.841Z,0.00
2019-03-08T05:34:14.815Z,0.00
2019-03-08T05:35:14.790Z,0.00
2019-03-08T05:36:14.761Z,0.00
2019-03-08T05:37:14.739Z,0.00
2019-03-08T05:38:14.713Z,0.00
2019-03-08T05:39:14.697Z,0.00
2019-03-08T05:40:14.668Z,0.00
2019-03-08T05:41:14.642Z,0.00
2019-03-08T05:42:14.618Z,0.00
2019-03-08T05:43:14.593Z,0.00
2019-03-08T05:44:14.576Z,0.00
2019-03-08T05:45:14.551Z,0.00
2019-03-08T05:46:14.523Z,0.00
2019-03-08T05:47:14.500Z,0.00
2019-03-08T05:48:14.477Z,0.00
2019-03-08T05:49:14.453Z,0.00
2019-03-08T05:50:14.476Z,4.00
2019-03-08T05:51:14.405Z,4.00
2019-03-08T05:52:14.386Z,4.00
2019-03-08T05:53:14.360Z,0.00
2019-03-08T05:54:14.337Z,4.00
2019-03-08T05:55:14.309Z,4.00
2019-03-08T05:56:14.288Z,4.00
2019-03-08T05:57:14.278Z,4.00
2019-03-08T05:58:14.242Z,4.00
2019-03-08T05:59:14.219Z,4.00
2019-03-08T06:00:14.195Z,4.00
2019-03-08T06:01:14.173Z,4.00
2019-03-08T06:02:14.147Z,8.00
2019-03-08T06:03:14.135Z,4.00
2019-03-08T06:04:14.102Z,4.00
2019-03-08T06:05:14.078Z,8.00
2019-03-08T06:06:14.051Z,8.00
2019-03-08T06:07:14.029Z,8.00
2019-03-08T06:08:14.008Z,8.00
2019-03-08T06:09:13.987Z,12.00
2019-03-08T06:10:13.955Z,12.00
2019-03-08T06:11:13.932Z,12.00
2019-03-08T06:12:13.909Z,8.00
2019-03-08T06:13:13.891Z,12.00
2019-03-08T06:14:13.862Z,12.00
2019-03-08T06:15:13.836Z,16.00
2019-03-08T06:16:13.814Z,16.00
2019-03-08T06:17:13.799Z,12.00
2019-03-08T06:18:13.769Z,16.00
2019-03-08T06:19:13.747Z,16.00
2019-03-08T06:20:13.719Z,20.00
2019-03-08T06:21:13.698Z,20.00
2019-03-08T06:22:13.678Z,24.00
2019-03-08T06:23:13.648Z,20.00
2019-03-08T06:24:13.630Z,24.00
2019-03-08T06:25:13.601Z,28.00
2019-03-08T06:26:13.579Z,28.00
2019-03-08T06:27:13.562Z,32.00
2019-03-08T06:28:13.539Z,32.00
2019-03-08T06:29:13.512Z,36.00
2019-03-08T06:30:13.485Z,36.00
2019-03-08T06:31:13.459Z,40.00
2019-03-08T06:32:13.436Z,40.00
2019-03-08T06:33:13.410Z,40.00
2019-03-08T06:34:13.385Z,40.00
2019-03-08T06:35:13.361Z,44.00
2019-03-08T06:36:13.339Z,48.00
2019-03-08T06:37:13.317Z,52.00
2019-03-08T06:38:13.291Z,48.00
2019-03-08T06:39:13.268Z,48.00
2019-03-08T06:40:13.245Z,48.00
2019-03-08T06:41:13.222Z,44.00
2019-03-08T06:42:13.202Z,40.00
2019-03-08T06:43:13.171Z,40.00
2019-03-08T06:44:13.151Z,36.00
2019-03-08T06:45:13.127Z,36.00
2019-03-08T06:46:13.102Z,32.00
2019-03-08T06:47:13.079Z,36.00
2019-03-08T06:48:13.055Z,40.00
2019-03-08T06:49:13.031Z,40.00
2019-03-08T06:50:13.008Z,40.00
2019-03-08T06:51:12.983Z,40.00
2019-03-08T06:52:12.962Z,40.00
2019-03-08T06:53:12.951Z,44.00
2019-03-08T06:54:12.914Z,56.00
2019-03-08T06:55:12.896Z,64.00
2019-03-08T06:56:12.867Z,76.00
2019-03-08T06:57:12.842Z,76.00
2019-03-08T06:58:12.820Z,88.00
2019-03-08T06:59:12.794Z,96.00
2019-03-08T07:00:12.769Z,104.00
2019-03-08T07:01:12.749Z,116.00
2019-03-08T07:02:12.722Z,124.00
2019-03-08T07:03:12.699Z,116.00
2019-03-08T07:04:12.676Z,112.00
2019-03-08T07:05:12.658Z,104.00
2019-03-08T07:06:12.630Z,100.00
2019-03-08T07:07:12.603Z,92.00
2019-03-08T07:08:13.658Z,84.00
2019-03-08T07:09:12.561Z,80.00
2019-03-08T07:10:12.533Z,84.00
2019-03-08T07:11:12.509Z,92.00
2019-03-08T07:12:12.489Z,100.00
2019-03-08T07:13:12.461Z,108.00
2019-03-08T07:14:12.439Z,108.00
2019-03-08T07:15:12.414Z,112.00
2019-03-08T07:16:14.038Z,112.00
2019-03-08T07:17:12.367Z,116.00
2019-03-08T07:18:13.142Z,120.00
2019-03-08T07:19:12.320Z,120.00
2019-03-08T07:20:12.296Z,128.00
2019-03-08T07:21:12.277Z,136.00
2019-03-08T07:22:12.249Z,140.00
2019-03-08T07:23:12.224Z,136.00
2019-03-08T07:24:12.203Z,132.00
2019-03-08T07:25:12.176Z,128.00
2019-03-08T07:26:12.154Z,144.00
2019-03-08T07:27:12.127Z,144.00
2019-03-08T07:28:12.105Z,156.00
2019-03-08T07:29:12.081Z,168.00
2019-03-08T07:30:12.058Z,164.00
2019-03-08T07:31:12.037Z,136.00
2019-03-08T07:32:12.018Z,96.00
2019-03-08T07:33:11.989Z,88.00
2019-03-08T07:34:11.964Z,84.00
2019-03-08T07:35:11.942Z,92.00
2019-03-08T07:36:11.933Z,100.00
2019-03-08T07:37:11.900Z,104.00
2019-03-08T07:38:11.878Z,124.00
2019-03-08T07:39:11.854Z,156.00
2019-03-08T07:40:11.824Z,188.00
2019-03-08T07:41:11.797Z,204.00
2019-03-08T07:42:11.774Z,236.00
2019-03-08T07:43:11.751Z,272.00
2019-03-08T07:44:11.731Z,296.00
2019-03-08T07:45:11.710Z,444.00
2019-03-08T07:46:11.680Z,380.00
2019-03-08T07:47:11.656Z,228.00
2019-03-08T07:48:11.633Z,232.00
2019-03-08T07:49:11.616Z,188.00
2019-03-08T07:50:11.594Z,196.00
2019-03-08T07:51:11.563Z,180.00
2019-03-08T07:52:11.536Z,184.00
2019-03-08T07:53:11.516Z,224.00
2019-03-08T07:54:11.492Z,344.00
2019-03-08T07:55:11.468Z,484.00
2019-03-08T07:56:11.446Z,524.00
2019-03-08T07:57:11.420Z,436.00
2019-03-08T07:58:11.400Z,432.00
2019-03-08T07:59:11.370Z,480.00
2019-03-08T08:00:11.349Z,520.00
2019-03-08T08:01:11.327Z,740.00
2019-03-08T08:02:11.308Z,800.00
2019-03-08T08:03:11.274Z,540.00
2019-03-08T08:04:11.260Z,408.00
2019-03-08T08:05:11.230Z,388.00
2019-03-08T08:06:11.205Z,352.00
2019-03-08T08:07:11.182Z,324.00
2019-03-08T08:08:11.156Z,204.00
2019-03-08T08:09:11.131Z,172.00
2019-03-08T08:10:13.173Z,192.00
2019-03-08T08:11:11.086Z,224.00
2019-03-08T08:12:11.066Z,252.00
2019-03-08T08:13:11.040Z,232.00
2019-03-08T08:14:11.018Z,228.00
2019-03-08T08:15:10.996Z,228.00
2019-03-08T08:16:10.966Z,256.00
2019-03-08T08:17:10.944Z,260.00
2019-03-08T08:18:10.926Z,204.00
2019-03-08T08:19:10.897Z,180.00
2019-03-08T08:20:16.322Z,220.00
2019-03-08T08:21:10.855Z,248.00
2019-03-08T08:22:12.271Z,236.00
2019-03-08T08:23:10.806Z,292.00
2019-03-08T08:24:10.779Z,448.00
2019-03-08T08:25:10.771Z,656.00
2019-03-08T08:26:10.731Z,724.00
2019-03-08T08:27:10.710Z,472.00
2019-03-08T08:28:10.686Z,656.00
2019-03-08T08:29:10.660Z,384.00
2019-03-08T08:30:10.638Z,344.00
2019-03-08T08:31:10.613Z,308.00
2019-03-08T08:32:10.589Z,316.00
2019-03-08T08:33:10.572Z,532.00
2019-03-08T08:34:10.543Z,472.00
2019-03-08T08:35:10.529Z,480.00
2019-03-08T08:36:10.495Z,816.00
2019-03-08T08:37:10.475Z,592.00
2019-03-08T08:38:10.456Z,572.00
2019-03-08T08:39:10.427Z,512.00
2019-03-08T08:40:10.402Z,584.00
2019-03-08T08:41:10.377Z,544.00
2019-03-08T08:42:10.359Z,596.00
2019-03-08T08:43:10.329Z,612.00
2019-03-08T08:44:10.307Z,472.00
2019-03-08T08:45:10.281Z,444.00
2019-03-08T08:46:10.263Z,520.00
2019-03-08T08:47:10.240Z,548.00
2019-03-08T08:48:10.212Z,528.00
2019-03-08T08:49:10.190Z,612.00
2019-03-08T08:50:10.166Z,752.00
2019-03-08T08:51:10.142Z,908.00
2019-03-08T08:52:10.119Z,776.00
2019-03-08T08:53:10.096Z,432.00
2019-03-08T08:54:10.072Z,464.00
2019-03-08T08:55:10.055Z,512.00
2019-03-08T08:56:10.024Z,972.00
2019-03-08T08:57:10.014Z,792.00
2019-03-08T08:58:09.977Z,764.00
2019-03-08T08:59:09.954Z,1112.00
2019-03-08T09:00:09.930Z,984.00
2019-03-08T09:01:09.919Z,692.00
2019-03-08T09:02:09.885Z,636.00
2019-03-08T09:03:09.863Z,628.00
2019-03-08T09:04:09.845Z,564.00
2019-03-08T09:05:09.814Z,468.00
2019-03-08T09:06:09.795Z,328.00
2019-03-08T09:07:09.767Z,292.00
2019-03-08T09:08:09.743Z,352.00
2019-03-08T09:09:09.720Z,460.00
2019-03-08T09:10:09.697Z,464.00
2019-03-08T09:11:09.675Z,532.00
2019-03-08T09:12:09.666Z,524.00
2019-03-08T09:13:09.628Z,388.00
2019-03-08T09:14:09.606Z,324.00
2019-03-08T09:15:09.580Z,268.00
2019-03-08T09:16:09.567Z,212.00
2019-03-08T09:17:09.538Z,176.00
2019-03-08T09:18:09.513Z,180.00
2019-03-08T09:19:09.488Z,248.00
2019-03-08T09:20:09.474Z,252.00
2019-03-08T09:21:09.446Z,220.00
2019-03-08T09:22:09.418Z,228.00
2019-03-08T09:23:09.405Z,292.00
2019-03-08T09:24:09.373Z,324.00
2019-03-08T09:25:09.347Z,392.00
2019-03-08T09:26:09.341Z,500.00
2019-03-08T09:27:09.300Z,580.00
2019-03-08T09:28:09.277Z,592.00
2019-03-08T09:29:09.259Z,624.00
2019-03-08T09:30:09.235Z,652.00
2019-03-08T09:31:09.206Z,648.00
2019-03-08T09:32:09.183Z,460.00
2019-03-08T09:33:09.164Z,404.00
2019-03-08T09:34:09.135Z,432.00
2019-03-08T09:35:09.111Z,680.00
2019-03-08T09:36:09.089Z,520.00
2019-03-08T09:37:09.082Z,572.00
2019-03-08T09:38:09.052Z,784.00
2019-03-08T09:39:09.018Z,700.00
2019-03-08T09:40:08.994Z,416.00
2019-03-08T09:41:08.978Z,1196.00
2019-03-08T09:42:08.956Z,388.00
2019-03-08T09:43:08.927Z,724.00
2019-03-08T09:44:08.900Z,1228.00
2019-03-08T09:45:08.883Z,1228.00
2019-03-08T09:46:08.873Z,1232.00
2019-03-08T09:47:08.831Z,1264.00
2019-03-08T09:48:08.809Z,1252.00
2019-03-08T09:49:08.783Z,444.00
2019-03-08T09:50:08.761Z,1376.00
2019-03-08T09:51:08.739Z,600.00
2019-03-08T09:52:08.719Z,1284.00
2019-03-08T09:53:08.690Z,1100.00
2019-03-08T09:54:08.674Z,404.00
2019-03-08T09:55:08.646Z,1364.00
2019-03-08T09:56:08.628Z,372.00
2019-03-08T09:57:08.597Z,428.00
2019-03-08T09:58:08.573Z,424.00
2019-03-08T09:59:08.553Z,672.00
2019-03-08T10:00:08.533Z,680.00
2019-03-08T10:01:16.351Z,736.00
2019-03-08T10:02:08.482Z,672.00
2019-03-08T10:03:08.456Z,496.00
2019-03-08T10:04:08.442Z,436.00
2019-03-08T10:05:08.413Z,360.00
2019-03-08T10:06:08.389Z,260.00
2019-03-08T10:07:08.363Z,212.00
2019-03-08T10:08:08.342Z,184.00
2019-03-08T10:09:08.317Z,176.00
2019-03-08T10:10:08.295Z,188.00
2019-03-08T10:11:08.274Z,220.00
2019-03-08T10:12:08.249Z,248.00
2019-03-08T10:13:08.233Z,260.00
2019-03-08T10:14:08.204Z,216.00
2019-03-08T10:15:08.179Z,236.00
2019-03-08T10:16:08.155Z,264.00
2019-03-08T10:17:08.137Z,312.00
2019-03-08T10:18:08.119Z,300.00
2019-03-08T10:19:08.082Z,264.00
2019-03-08T10:20:08.064Z,240.00
2019-03-08T10:21:08.037Z,268.00
2019-03-08T10:22:08.014Z,432.00
2019-03-08T10:23:07.995Z,324.00
2019-03-08T10:24:07.967Z,256.00
2019-03-08T10:25:07.945Z,256.00
2019-03-08T10:26:07.934Z,276.00
2019-03-08T10:27:07.899Z,296.00
2019-03-08T10:28:07.871Z,304.00
2019-03-08T10:29:07.852Z,324.00
2019-03-08T10:30:07.828Z,360.00
2019-03-08T10:31:07.814Z,328.00
2019-03-08T10:32:07.781Z,360.00
2019-03-08T10:33:07.757Z,396.00
2019-03-08T10:34:07.734Z,408.00
2019-03-08T10:35:07.710Z,440.00
2019-03-08T10:36:07.688Z,420.00
2019-03-08T10:37:07.663Z,892.00
2019-03-08T10:38:07.642Z,344.00
2019-03-08T10:39:07.615Z,380.00
2019-03-08T10:40:07.592Z,452.00
2019-03-08T10:41:07.570Z,512.00
2019-03-08T10:42:07.548Z,596.00
2019-03-08T10:43:07.527Z,660.00
2019-03-08T10:44:09.100Z,772.00
2019-03-08T10:45:07.475Z,748.00
2019-03-08T10:46:15.513Z,636.00
2019-03-08T10:47:07.428Z,1708.00
2019-03-08T10:48:07.405Z,1700.00
2019-03-08T10:49:07.394Z,1316.00
2019-03-08T10:50:07.359Z,1328.00
2019-03-08T10:51:07.338Z,1688.00
2019-03-08T10:52:07.313Z,1388.00
2019-03-08T10:53:07.289Z,1724.00
2019-03-08T10:54:07.266Z,1676.00
2019-03-08T10:55:07.248Z,1604.00
2019-03-08T10:56:07.244Z,1684.00
2019-03-08T10:57:07.206Z,924.00
2019-03-08T10:58:07.177Z,1732.00
2019-03-08T10:59:07.154Z,1748.00
2019-03-08T11:00:07.129Z,1860.00
2019-03-08T11:01:07.112Z,1924.00
2019-03-08T11:02:07.089Z,1900.00
2019-03-08T11:03:07.063Z,1924.00
2019-03-08T11:04:07.042Z,1864.00
2019-03-08T11:05:07.028Z,1852.00
2019-03-08T11:06:06.998Z,920.00
2019-03-08T11:07:06.970Z,520.00
2019-03-08T11:08:08.923Z,1876.00
2019-03-08T11:09:06.925Z,1900.00
2019-03-08T11:10:06.909Z,1884.00
2019-03-08T11:11:06.887Z,1820.00
2019-03-08T11:12:06.857Z,1680.00
2019-03-08T11:13:06.835Z,1816.00
2019-03-08T11:14:06.813Z,1776.00
2019-03-08T11:15:06.787Z,1768.00
2019-03-08T11:16:06.776Z,1772.00
2019-03-08T11:17:06.744Z,1764.00
2019-03-08T11:18:06.723Z,1768.00
2019-03-08T11:19:09.005Z,1776.00
2019-03-08T11:20:06.676Z,1788.00
2019-03-08T11:21:06.659Z,1836.00
2019-03-08T11:22:06.632Z,1860.00
2019-03-08T11:23:06.608Z,1872.00
2019-03-08T11:24:06.586Z,1852.00
2019-03-08T11:25:08.615Z,1856.00
2019-03-08T11:26:06.583Z,1880.00
2019-03-08T11:27:06.521Z,1924.00
2019-03-08T11:28:06.499Z,1280.00
2019-03-08T11:29:06.488Z,1888.00
2019-03-08T11:30:06.455Z,2104.00
2019-03-08T11:31:06.432Z,1060.00
2019-03-08T11:32:06.413Z,2396.00
2019-03-08T11:33:06.389Z,1300.00
2019-03-08T11:34:06.372Z,2064.00
2019-03-08T11:35:06.353Z,2108.00
2019-03-08T11:36:06.323Z,1832.00
2019-03-08T11:37:06.302Z,2240.00
2019-03-08T11:38:06.275Z,2240.00
2019-03-08T11:39:06.261Z,2248.00
2019-03-08T11:40:06.241Z,2256.00
2019-03-08T11:41:06.210Z,2284.00
2019-03-08T11:42:06.191Z,2368.00
2019-03-08T11:43:06.168Z,2472.00
2019-03-08T11:44:06.146Z,2556.00
2019-03-08T11:45:06.130Z,2616.00
2019-03-08T11:46:06.099Z,2480.00
2019-03-08T11:47:06.078Z,1052.00
2019-03-08T11:48:06.058Z,760.00
2019-03-08T11:49:06.083Z,796.00
2019-03-08T11:50:06.017Z,1056.00
2019-03-08T11:51:05.990Z,1016.00
2019-03-08T11:52:05.968Z,888.00
2019-03-08T11:53:05.947Z,1044.00
2019-03-08T11:54:05.925Z,1356.00
2019-03-08T11:55:05.903Z,1728.00
2019-03-08T11:56:05.882Z,2664.00
2019-03-08T11:57:05.864Z,1056.00
2019-03-08T11:58:05.846Z,932.00
2019-03-08T11:59:05.820Z,828.00
2019-03-08T12:00:05.792Z,748.00
2019-03-08T12:01:05.778Z,1436.00
2019-03-08T12:02:05.785Z,1328.00
2019-03-08T12:03:05.731Z,896.00
2019-03-08T12:04:05.707Z,568.00
2019-03-08T12:05:05.682Z,504.00
2019-03-08T12:06:05.660Z,592.00
2019-03-08T12:07:05.639Z,556.00
2019-03-08T12:08:05.632Z,436.00
2019-03-08T12:09:05.599Z,480.00
2019-03-08T12:10:05.583Z,580.00
2019-03-08T12:11:05.559Z,624.00
2019-03-08T12:12:05.534Z,748.00
2019-03-08T12:13:05.506Z,828.00
2019-03-08T12:14:05.484Z,940.00
2019-03-08T12:15:05.474Z,844.00
2019-03-08T12:16:05.436Z,1296.00
2019-03-08T12:17:05.415Z,1840.00
2019-03-08T12:18:05.393Z,2408.00
2019-03-08T12:19:05.383Z,1464.00
2019-03-08T12:20:05.347Z,956.00
2019-03-08T12:21:05.324Z,2176.00
2019-03-08T12:22:05.302Z,796.00
2019-03-08T12:23:05.276Z,952.00
2019-03-08T12:24:05.253Z,1308.00
2019-03-08T12:25:05.234Z,744.00
2019-03-08T12:26:05.239Z,700.00
2019-03-08T12:27:05.190Z,656.00
2019-03-08T12:28:05.167Z,596.00
2019-03-08T12:29:05.142Z,576.00
2019-03-08T12:30:05.125Z,608.00
2019-03-08T12:31:05.105Z,584.00
2019-03-08T12:32:05.078Z,716.00
2019-03-08T12:33:05.062Z,664.00
2019-03-08T12:34:05.031Z,604.00
2019-03-08T12:35:05.002Z,580.00
2019-03-08T12:36:04.994Z,568.00
2019-03-08T12:37:04.962Z,544.00
2019-03-08T12:38:04.948Z,492.00
2019-03-08T12:39:04.920Z,472.00
2019-03-08T12:40:04.933Z,440.00
2019-03-08T12:41:04.878Z,424.00
2019-03-08T12:42:04.847Z,1324.00
2019-03-08T12:43:08.140Z,380.00
2019-03-08T12:44:04.801Z,352.00
2019-03-08T12:45:04.777Z,336.00
2019-03-08T12:46:04.754Z,308.00
2019-03-08T12:47:04.736Z,276.00
2019-03-08T12:48:04.707Z,244.00
2019-03-08T12:49:04.687Z,240.00
2019-03-08T12:50:04.662Z,260.00